UR3PDA-3 Weather Reports


Display with metric or nautical units.
time (UTC)temp
F
wind
direction
speed
MPH
gust
MPH
rain 1hr
in
rain 24hr
in
rain mn
in
humidity
%
barometer
mb
20260507025310 61 0.0 0.0 0.00 0.00 0.00 23 982.4
20260507024710 61 0.0 0.0 0.00 0.00 0.00 23 982.3
20260507024109 61 0.0 0.0 0.00 0.00 0.00 23 982.3
20260507023508 61 0.0 0.0 0.00 0.00 0.00 23 982.3
20260507022908 61 0.0 0.0 0.00 0.00 0.00 23 982.3
20260507022307 61 0.0 0.0 0.00 0.00 0.00 23 982.3
20260507021706 61 0.0 0.0 0.00 0.00 0.00 23 982.3
20260507021106 61 0.0 0.0 0.00 0.00 0.00 23 982.4
20260507020505 61 0.0 0.0 0.00 0.00 0.00 23 982.4
20260507015904 62 0.0 0.0 0.00 0.00 0.00 23 982.4
20260507015306 62 0.0 0.0 0.00 0.00 0.00 23 982.4
20260507014703 62 0.0 0.0 0.00 0.00 0.00 23 982.4
20260507014102 62 0.0 0.0 0.00 0.00 0.00 23 982.4
20260507013502 62 0.0 0.0 0.00 0.00 0.00 23 982.3
20260507012901 62 0.0 0.0 0.00 0.00 0.00 23 982.2
20260507012300 62 0.0 0.0 0.00 0.00 0.00 23 982.2
20260507011700 62 0.0 0.0 0.00 0.00 0.00 23 982.2
20260507011059 63 0.0 0.0 0.00 0.00 0.00 23 982.2
20260507010458 62 0.0 0.0 0.00 0.00 0.00 23 982.2
20260507005858 62 0.0 0.0 0.00 0.00 0.00 23 982.2
20260507005257 62 0.0 0.0 0.00 0.00 0.00 23 982.2
20260507004656 61 0.0 0.0 0.00 0.00 0.00 23 982.2
20260507004056 61 0.0 0.0 0.00 0.00 0.00 23 982.2
20260507003455 61 0.0 0.0 0.00 0.00 0.00 23 982.2
20260507002855 61 0.0 0.0 0.00 0.00 0.00 23 982.2
20260507002254 61 0.0 0.0 0.00 0.00 0.00 23 982.2
20260507001654 61 0.0 0.0 0.00 0.00 0.00 23 982.2
20260507001053 62 0.0 0.0 0.00 0.00 0.00 23 982.1
20260507000452 61 0.0 0.0 0.00 0.00 0.00 23 982.1
20260506235852 61 0.0 0.0 0.00 0.00 0.00 23 982.1
20260506235251 62 0.0 0.0 0.00 0.00 0.00 23 982.1
20260506234650 62 0.0 0.0 0.00 0.00 0.00 22 982.1
20260506234050 62 0.0 0.0 0.00 0.00 0.00 22 982.2
20260506233449 61 0.0 0.0 0.00 0.00 0.00 22 982.2
20260506232848 62 0.0 0.0 0.00 0.00 0.00 22 982.3
20260506232248 62 0.0 0.0 0.00 0.00 0.00 22 982.2
20260506231647 62 0.0 0.0 0.00 0.00 0.00 22 982.2
20260506231047 62 0.0 0.0 0.00 0.00 0.00 22 982.2
20260506230446 63 0.0 0.0 0.00 0.00 0.00 20 982.3
20260506225845 62 0.0 0.0 0.00 0.00 0.00 20 982.3
20260506225245 63 0.0 0.0 0.00 0.00 0.00 20 982.3
20260506224644 63 0.0 0.0 0.00 0.00 0.00 20 982.4
20260506224043 63 0.0 0.0 0.00 0.00 0.00 20 982.4
20260506223443 64 0.0 0.0 0.00 0.00 0.00 19 982.4
20260506222842 64 0.0 0.0 0.00 0.00 0.00 19 982.3
20260506222241 64 0.0 0.0 0.00 0.00 0.00 19 982.3
20260506221641 65 0.0 0.0 0.00 0.00 0.00 19 982.2
20260506221040 65 0.0 0.0 0.00 0.00 0.00 19 982.2
20260506220439 65 0.0 0.0 0.00 0.00 0.00 19 982.1
20260506215839 65 0.0 0.0 0.00 0.00 0.00 19 982.1
20260506215238 65 0.0 0.0 0.00 0.00 0.00 19 982.1
20260506214637 65 0.0 0.0 0.00 0.00 0.00 19 982.0
20260506214037 65 0.0 0.0 0.00 0.00 0.00 19 982.0
20260506213436 65 0.0 0.0 0.00 0.00 0.00 19 981.9
20260506212835 65 0.0 0.0 0.00 0.00 0.00 19 981.9
20260506212235 65 0.0 0.0 0.00 0.00 0.00 19 981.9
20260506211634 66 0.0 0.0 0.00 0.00 0.00 18 981.9
20260506211033 66 0.0 0.0 0.00 0.00 0.00 19 981.8
20260506210433 66 0.0 0.0 0.00 0.00 0.00 19 981.7
20260506205832 66 0.0 0.0 0.00 0.00 0.00 19 981.7
20260506205231 66 0.0 0.0 0.00 0.00 0.00 19 981.6
20260506204631 65 0.0 0.0 0.00 0.00 0.00 19 981.6
20260506204030 64 0.0 0.0 0.00 0.00 0.00 19 981.5
20260506203429 64 0.0 0.0 0.00 0.00 0.00 19 981.5
20260506202829 64 0.0 0.0 0.00 0.00 0.00 19 981.5
20260506202228 65 0.0 0.0 0.00 0.00 0.00 18 981.4
20260506201627 66 0.0 0.0 0.00 0.00 0.00 17 981.4
20260506201027 67 0.0 0.0 0.00 0.00 0.00 17 981.4
20260506200426 67 0.0 0.0 0.00 0.00 0.00 16 981.3
20260506195825 67 0.0 0.0 0.00 0.00 0.00 17 981.3
20260506195225 66 0.0 0.0 0.00 0.00 0.00 17 981.3
20260506194624 66 0.0 0.0 0.00 0.00 0.00 17 981.3
20260506194023 65 0.0 0.0 0.00 0.00 0.00 17 981.3
20260506193423 65 0.0 0.0 0.00 0.00 0.00 14 981.3
20260506192822 66 0.0 0.0 0.00 0.00 0.00 11 981.3
20260506192222 68 0.0 0.0 0.00 0.00 0.00 981.2
20260506191621 70 0.0 0.0 0.00 0.00 0.00 981.1
20260506191020 71 0.0 0.0 0.00 0.00 0.00 981.1
20260506190420 71 0.0 0.0 0.00 0.00 0.00 980.9
20260506185819 72 0.0 0.0 0.00 0.00 0.00 43 981.0
20260506185218 73 0.0 0.0 0.00 0.00 0.00 980.9
20260506184618 73 0.0 0.0 0.00 0.00 0.00 43 980.9
20260506184017 74 0.0 0.0 0.00 0.00 0.00 980.8
20260506183416 74 0.0 0.0 0.00 0.00 0.00 43 980.8
20260506182816 74 0.0 0.0 0.00 0.00 0.00 38 980.7
20260506182215 75 0.0 0.0 0.00 0.00 0.00 38 980.6
20260506181614 75 0.0 0.0 0.00 0.00 0.00 31 980.6
20260506181014 75 0.0 0.0 0.00 0.00 0.00 31 980.5
20260506180413 76 0.0 0.0 0.00 0.00 0.00 32 980.4
20260506175812 76 0.0 0.0 0.00 0.00 0.00 31 980.4
20260506175212 76 0.0 0.0 0.00 0.00 0.00 31 980.3
20260506174611 77 0.0 0.0 0.00 0.00 0.00 31 980.3
20260506174010 77 0.0 0.0 0.00 0.00 0.00 24 980.2
20260506173410 77 0.0 0.0 0.00 0.00 0.00 26 980.2
20260506172809 78 0.0 0.0 0.00 0.00 0.00 26 980.1
20260506172209 78 0.0 0.0 0.00 0.00 0.00 26 980.1
20260506171608 78 0.0 0.0 0.00 0.00 0.00 29 980.0
20260506171007 78 0.0 0.0 0.00 0.00 0.00 23 979.9
20260506170406 78 0.0 0.0 0.00 0.00 0.00 23 979.9
20260506165806 79 0.0 0.0 0.00 0.00 0.00 26 979.9
20260506165205 80 0.0 0.0 0.00 0.00 0.00 26 979.9
20260506164604 82 0.0 0.0 0.00 0.00 0.00 22 979.9
20260506164004 83 0.0 0.0 0.00 0.00 0.00 22 979.8
20260506163404 83 0.0 0.0 0.00 0.00 0.00 11 979.6
20260506162803 83 0.0 0.0 0.00 0.00 0.00 16 979.7
20260506162202 84 0.0 0.0 0.00 0.00 0.00 10 979.6
20260506161602 83 0.0 0.0 0.00 0.00 0.00 20 979.6
20260506161001 83 0.0 0.0 0.00 0.00 0.00 19 979.6
20260506160400 83 0.0 0.0 0.00 0.00 0.00 19 979.6
20260506155800 85 0.0 0.0 0.00 0.00 0.00 28 979.6
20260506155159 85 0.0 0.0 0.00 0.00 0.00 10 979.6
20260506154558 85 0.0 0.0 0.00 0.00 0.00 10 979.6
20260506153958 86 0.0 0.0 0.00 0.00 0.00 28 979.8
20260506153357 85 0.0 0.0 0.00 0.00 0.00 979.8
20260506152757 84 0.0 0.0 0.00 0.00 0.00 14 979.8
20260506152156 85 0.0 0.0 0.00 0.00 0.00 23 979.9
20260506151555 85 0.0 0.0 0.00 0.00 0.00 14 979.9
20260506150955 84 0.0 0.0 0.00 0.00 0.00 980.0
20260506150354 82 0.0 0.0 0.00 0.00 0.00 29 980.0
20260506145753 82 0.0 0.0 0.00 0.00 0.00 24 979.9
20260506145153 83 0.0 0.0 0.00 0.00 0.00 16 979.9
20260506144552 83 0.0 0.0 0.00 0.00 0.00 20 979.9
20260506143951 84 0.0 0.0 0.00 0.00 0.00 14 979.9
20260506143351 85 0.0 0.0 0.00 0.00 0.00 23 979.9
20260506142750 88 0.0 0.0 0.00 0.00 0.00 14 979.9
20260506142149 87 0.0 0.0 0.00 0.00 0.00 19 980.0
20260506141549 87 0.0 0.0 0.00 0.00 0.00 28 980.0
20260506140948 88 0.0 0.0 0.00 0.00 0.00 28 980.0
20260506140347 89 0.0 0.0 0.00 0.00 0.00 26 979.9
20260506135747 88 0.0 0.0 0.00 0.00 0.00 11 980.0
20260506135146 89 0.0 0.0 0.00 0.00 0.00 14 979.9
20260506134545 88 0.0 0.0 0.00 0.00 0.00 23 980.0
20260506133945 90 0.0 0.0 0.00 0.00 0.00 10 980.0
20260506133342 91 0.0 0.0 0.00 0.00 0.00 10 980.0
20260506132742 90 0.0 0.0 0.00 0.00 0.00 10 980.2
20260506132141 89 0.0 0.0 0.00 0.00 0.00 13 980.3
20260506131541 88 0.0 0.0 0.00 0.00 0.00 11 980.3
20260506130941 90 0.0 0.0 0.00 0.00 0.00 13 980.2
20260506130340 90 0.0 0.0 0.00 0.00 0.00 13 980.3
20260506125740 90 0.0 0.0 0.00 0.00 0.00 22 980.4
20260506125139 91 0.0 0.0 0.00 0.00 0.00 18 980.3
20260506124539 89 0.0 0.0 0.00 0.00 0.00 13 980.4
20260506123939 89 0.0 0.0 0.00 0.00 0.00 18 980.5
20260506123338 89 0.0 0.0 0.00 0.00 0.00 23 980.7
20260506122738 90 0.0 0.0 0.00 0.00 0.00 22 980.6
20260506122138 90 0.0 0.0 0.00 0.00 0.00 13 980.6
20260506121538 91 0.0 0.0 0.00 0.00 0.00 22 980.7
20260506120937 91 0.0 0.0 0.00 0.00 0.00 10 980.7
20260506120337 91 0.0 0.0 0.00 0.00 0.00 980.8
20260506115736 91 0.0 0.0 0.00 0.00 0.00 22 980.8
20260506115136 90 0.0 0.0 0.00 0.00 0.00 18 980.8
20260506114536 90 0.0 0.0 0.00 0.00 0.00 981.0
20260506113935 90 0.0 0.0 0.00 0.00 0.00 18 980.8
20260506113335 90 0.0 0.0 0.00 0.00 0.00 13 981.0
20260506112734 88 0.0 0.0 0.00 0.00 0.00 28 980.9
20260506112134 87 0.0 0.0 0.00 0.00 0.00 23 981.0
20260506111534 90 0.0 0.0 0.00 0.00 0.00 13 981.1
20260506110933 88 0.0 0.0 0.00 0.00 0.00 19 981.1
20260506110333 88 0.0 0.0 0.00 0.00 0.00 19 981.3
20260506105732 92 0.0 0.0 0.00 0.00 0.00 22 981.3
20260506105131 92 0.0 0.0 0.00 0.00 0.00 25 981.3
20260506104531 91 0.0 0.0 0.00 0.00 0.00 13 981.4
20260506103930 88 0.0 0.0 0.00 0.00 0.00 19 981.5
20260506103329 92 0.0 0.0 0.00 0.00 0.00 981.4
20260506102729 91 0.0 0.0 0.00 0.00 0.00 10 981.5
20260506102128 92 0.0 0.0 0.00 0.00 0.00 26 981.5
20260506101527 92 0.0 0.0 0.00 0.00 0.00 26 981.5
20260506100927 92 0.0 0.0 0.00 0.00 0.00 22 981.6
20260506100326 91 0.0 0.0 0.00 0.00 0.00 22 981.6
20260506095726 90 0.0 0.0 0.00 0.00 0.00 26 981.6
20260506095125 90 0.0 0.0 0.00 0.00 0.00 18 981.6
20260506094524 89 0.0 0.0 0.00 0.00 0.00 981.7
20260506093923 90 0.0 0.0 0.00 0.00 0.00 981.7
20260506093323 90 0.0 0.0 0.00 0.00 0.00 26 981.7
20260506092722 90 0.0 0.0 0.00 0.00 0.00 981.7
20260506092122 88 0.0 0.0 0.00 0.00 0.00 10 981.8
20260506091521 88 0.0 0.0 0.00 0.00 0.00 20 981.8
20260506090921 88 0.0 0.0 0.00 0.00 0.00 24 981.8
20260506090320 87 0.0 0.0 0.00 0.00 0.00 20 981.9
20260506085719 85 0.0 0.0 0.00 0.00 0.00 28 981.8
20260506085119 86 0.0 0.0 0.00 0.00 0.00 981.9
20260506084518 85 0.0 0.0 0.00 0.00 0.00 14 981.9
20260506083917 85 0.0 0.0 0.00 0.00 0.00 981.9
20260506083317 85 0.0 0.0 0.00 0.00 0.00 14 981.8
20260506082716 85 0.0 0.0 0.00 0.00 0.00 10 981.8
20260506082115 84 0.0 0.0 0.00 0.00 0.00 14 981.9
20260506081515 83 0.0 0.0 0.00 0.00 0.00 25 982.0
20260506080914 82 0.0 0.0 0.00 0.00 0.00 25 982.0
20260506080313 83 0.0 0.0 0.00 0.00 0.00 25 982.0
20260506073310 82 0.0 0.0 0.00 0.00 0.00 42 982.1
20260506072710 82 0.0 0.0 0.00 0.00 0.00 40 982.2
20260506072109 81 0.0 0.0 0.00 0.00 0.00 40 982.2
20260506071508 80 0.0 0.0 0.00 0.00 0.00 40 982.2
20260506070908 79 0.0 0.0 0.00 0.00 0.00 982.2
20260506070307 79 0.0 0.0 0.00 0.00 0.00 982.2
20260506062103 76 0.0 0.0 0.00 0.00 0.00 982.2
20260506061502 76 0.0 0.0 0.00 0.00 0.00 982.3
20260506060902 75 0.0 0.0 0.00 0.00 0.00 10 982.3
20260506060301 75 0.0 0.0 0.00 0.00 0.00 11 982.2
20260506050855 69 0.0 0.0 0.00 0.00 0.00 17 982.1
20260506050254 68 0.0 0.0 0.00 0.00 0.00 18 982.1
20260506045053 66 0.0 0.0 0.00 0.00 0.00 19 982.2
20260506044452 65 0.0 0.0 0.00 0.00 0.00 19 982.1
20260506043852 64 0.0 0.0 0.00 0.00 0.00 20 982.1
20260506043251 64 0.0 0.0 0.00 0.00 0.00 19 982.1
20260506042650 63 0.0 0.0 0.00 0.00 0.00 19 982.1
20260506042050 62 0.0 0.0 0.00 0.00 0.00 20 982.1
20260506041449 61 0.0 0.0 0.00 0.00 0.00 20 982.0
20260506040848 60 0.0 0.0 0.00 0.00 0.00 20 982.0
20260506040248 60 0.0 0.0 0.00 0.00 0.00 20 982.0
20260506035647 59 0.0 0.0 0.00 0.00 0.00 20 982.0
20260506035046 59 0.0 0.0 0.00 0.00 0.00 20 981.9
20260506034446 58 0.0 0.0 0.00 0.00 0.00 22 981.9
20260506033845 57 0.0 0.0 0.00 0.00 0.00 22 981.9
20260506033245 56 0.0 0.0 0.00 0.00 0.00 22 981.9
20260506032043 55 0.0 0.0 0.00 0.00 0.00 22 981.9
20260506031443 55 0.0 0.0 0.00 0.00 0.00 22 981.8
20260506030843 55 0.0 0.0 0.00 0.00 0.00 22 981.8
20260506030242 55 0.0 0.0 0.00 0.00 0.00 22 981.7